Flight Track Log - Related Links

Times and Time Zones

All times are in EDT time to prevent confusion due to time zone crossing. See the EJA589 flight status page for this flight to view local times or setup timezone preferences in your user account.


Time Position Orientation Groundspeed Altitude Reporting Facility
EDT Latitude Longitude Course Direction KTS MPH feet Rate Location/Type
Wed 08:52:42 PM 44.9000 -93.2833 282° West 222 255 4,300  Level Minneapolis TRACON
Wed 08:53:00 PM 44.9022 -93.2986 282° West 220 253 5,000 2,850 Climbing Minneapolis Center
Wed 08:54:02 PM 44.8961 -93.3958 265° West 255 293 8,100 3,242 Climbing Minneapolis Center
Wed 08:55:04 PM 44.8517 -93.4500 221° Southwest 260 299 11,700 3,290 Climbing Minneapolis Center
Wed 08:56:06 PM 44.8050 -93.3358 120° Southeast 300 345 14,900 2,516 Climbing Minneapolis Center
Wed 08:57:08 PM 44.7869 -93.2092 101° East 329 379 16,900 1,984 Climbing Minneapolis Center
Wed 08:58:10 PM 44.7639 -93.0614 102° East 358 412 19,000 2,226 Climbing Minneapolis Center
Wed 08:59:12 PM 44.7411 -92.9194 103° East 368 423 21,500 2,206 Climbing Minneapolis Center
Wed 09:00:26 PM 44.7206 -92.7747 101° East 374 430 24,000 2,365 Climbing Minneapolis Center
Wed 09:01:29 PM 44.6958 -92.5983 101° East 382 440 26,900 2,304 Climbing Minneapolis Center
Wed 09:02:31 PM 44.6500 -92.4606 115° Southeast 389 448 28,800 1,016 Climbing Minneapolis Center
Wed 09:03:33 PM 44.5928 -92.3181 119° Southeast 409 471 29,000 97 Climbing Minneapolis Center
Wed 09:04:35 PM 44.5156 -92.1422 122° Southeast 435 501 29,000  Level Minneapolis Center
Wed 09:05:37 PM 44.4411 -92.0025 127° Southeast 444 511 29,000  Level Minneapolis Center
Wed 09:06:39 PM 44.3694 -91.8600 125° Southeast 448 516 29,000  Level Minneapolis Center
Wed 09:07:41 PM 44.3106 -91.7083 118° Southeast 445 512 29,000  Level Minneapolis Center
Wed 09:08:43 PM 44.2536 -91.5525 117° Southeast 450 518 29,000  Level Minneapolis Center
Wed 09:09:45 PM 44.1964 -91.3969 117° Southeast 452 520 29,000  Level Minneapolis Center
Wed 09:10:47 PM 44.1331 -91.2275 117° Southeast 452 520 29,000  Level Minneapolis Center
Wed 09:11:49 PM 44.0742 -91.0742 118° Southeast 452 520 29,000  Level Minneapolis Center
Wed 09:12:51 PM 44.0131 -90.9231 119° Southeast 451 519 29,000  Level Minneapolis Center
Wed 09:13:53 PM 43.9411 -90.7408 119° Southeast 451 519 29,000  Level Minneapolis Center
Wed 09:14:56 PM 43.8811 -90.5889 119° Southeast 451 519 29,000  Level Minneapolis Center
Wed 09:15:58 PM 43.8144 -90.4258 119° Southeast 455 524 29,000  Level Minneapolis Center
Wed 09:17:00 PM 43.7569 -90.2869 120° Southeast 452 520 29,000  Level Minneapolis Center
Wed 09:18:14 PM 43.6892 -90.1244 120° Southeast 453 521 29,000  Level Minneapolis Center
Wed 09:19:28 PM 43.6083 -89.9239 119° Southeast 450 518 29,000  Level Minneapolis Center
Wed 09:19:52 PM 43.5756 -89.8500 121° Southeast 451 519 29,000  Level Chicago Center
Wed 09:20:53 PM 43.5217 -89.6928 115° Southeast 453 521 29,000  Level Chicago Center
Wed 09:21:55 PM 43.4697 -89.5031 111° Southeast 454 522 29,000  Level Chicago Center
Wed 09:22:57 PM 43.4247 -89.3414 111° Southeast 453 521 29,000  Level Chicago Center
Wed 09:23:59 PM 43.3794 -89.1786 111° Southeast 455 524 29,000  Level Chicago Center
Wed 09:25:01 PM 43.3331 -89.0183 112° Southeast 454 522 29,000  Level Chicago Center
Wed 09:26:03 PM 43.2861 -88.8578 112° Southeast 456 525 29,000  Level Chicago Center
Wed 09:27:05 PM 43.2297 -88.6728 113° Southeast 454 522 29,000  Level Chicago Center
Wed 09:28:07 PM 43.1792 -88.5144 114° Southeast 459 528 29,000  Level Chicago Center
Wed 09:29:08 PM 43.1303 -88.3561 113° Southeast 456 525 29,000  Level Chicago Center
Wed 09:30:10 PM 43.1131 -88.1911 98° East 440 506 29,000  Level Chicago Center
Wed 09:31:12 PM 43.1217 -88.0219 86° East 446 513 29,000  Level Chicago Center
Wed 09:32:14 PM 43.1300 -87.8325 86° East 433 498 29,000  Level Chicago Center
Wed 09:33:16 PM 43.1361 -87.6683 87° East 432 497 29,000  Level Chicago Center
Wed 09:34:17 PM 43.1394 -87.5033 111° Southeast 434 499 29,000  Level Chicago Center
Wed 09:35:19 PM 43.1178 -87.3306 100° East 449 517 29,000  Level Chicago Center
Wed 09:36:21 PM 43.0981 -87.1636 99° East 447 514 29,000  Level Chicago Center
Wed 09:37:22 PM 43.0778 -86.9950 99° East 450 518 29,000  Level Chicago Center
Wed 09:38:24 PM 43.0586 -86.8269 99° East 449 517 29,000  Level Chicago Center
Wed 09:39:26 PM 43.0392 -86.6592 99° East 450 518 29,000  Level Chicago Center
Wed 09:40:28 PM 43.0169 -86.4592 99° East 447 514 29,000  Level Chicago Center
Wed 09:41:29 PM 42.9981 -86.2936 99° East 445 512 29,000  Level Chicago Center
Wed 09:42:31 PM 42.9825 -86.1283 97° East 445 512 29,000 -97 Level Chicago Center
Wed 09:43:33 PM 42.9661 -85.9672 98° East 447 514 28,800 -1,016 Descending Chicago Center
Wed 09:44:35 PM 42.9508 -85.7842 96° East 417 480 26,900 -1,659 Descending Chicago Center
Wed 09:45:36 PM 42.9364 -85.6283 97° East 416 479 25,400 -1,512 Descending Chicago Center
Wed 09:46:38 PM 42.9178 -85.4678 99° East 427 491 23,800 -1,500 Descending Chicago Center
Wed 09:47:40 PM 42.8994 -85.3094 99° East 426 490 22,300 -1,355 Descending Chicago Center
Wed 09:48:42 PM 42.8839 -85.1556 98° East 413 475 21,000 -634 Descending Chicago Center
Wed 09:49:43 PM 42.8706 -85.0053 97° East 403 464 21,000 -341 Level Chicago Center
Wed 09:50:45 PM 42.8561 -84.8550 97° East 402 463 20,300 -1,512 Descending Chicago Center
Wed 09:51:46 PM 42.8408 -84.6778 97° East 396 456 17,900 -2,146 Descending Chicago Center
Wed 09:52:48 PM 42.8267 -84.5322 98° East 390 449 15,900 -2,017 Descending Chicago Center
Wed 09:53:45 PM 42.8117 -84.3986 99° East 379 436 13,900 -2,065 Descending Cleveland Center
Wed 09:54:21 PM 42.8061 -84.3192 95° East 352 405 12,700 -2,100 Descending Cleveland Center
Wed 09:54:45 PM 42.7994 -84.2650 100° East 364 419 11,800 -2,278 Descending Cleveland Center
Wed 09:55:40 PM 42.7964 -84.1628 92° East 287 330 9,700 -1,631 Descending Cleveland Center
Wed 09:56:28 PM 42.7803 -84.0742 104° East 293 337 9,000 -831 Descending Cleveland Center
Wed 09:56:45 PM 42.7708 -84.0481 116° Southeast 296 341 8,800 -1,082 Descending Cleveland Center
Wed 09:57:29 PM 42.7458 -83.9761 115° Southeast 278 320 7,900 -1,200 Descending Cleveland Center
Wed 09:57:45 PM 42.7381 -83.9558 118° Southeast 277 319 7,600 -1,180 Descending Cleveland Center
Wed 09:58:30 PM 42.7108 -83.8836 117° Southeast 281 323 6,700 -1,200 Descending Cleveland Center
Wed 09:58:45 PM 42.7072 -83.8667 106° East 275 316 6,400 -1,300 Descending Cleveland Center
Wed 09:59:30 PM 42.6825 -83.7889 113° Southeast 271 312 5,400 -1,100 Descending Cleveland Center
Wed 09:59:45 PM 42.6747 -83.7633 112° Southeast 275 316 5,300 -1,180 Descending Cleveland Center
Wed 10:00:31 PM 42.6622 -83.6919 103° East 260 299 4,200 -1,210 Descending Cleveland Center
Wed 10:01:44 PM 42.6586 -83.5872 93° East 203 234 2,900 -896 Descending Cleveland Center
Wed 10:02:45 PM 42.6603 -83.5225 88° East 143 165 2,200 -709 Descending Cleveland Center
Wed 10:03:51 PM 42.6617 -83.4661 88° East 109 125 1,400 -727 Descending Cleveland Center
Wed 10:05:00 PM 42.6500 -83.4167 90° East  Level FlightAware Approximate
Wed 10:12:00 PM 42.6656 -83.4205 90° East  Level Estimated
Wed 10:13:00 PM 42.6656 -83.4205 90° East  Level Estimated

Login

Don't have an account? Register now (free) for customized features, flight alerts, and more!